Terminal Aerodrome Forecast
Issued by NWS Tulsa, OK

Home | Current Version | Previous Version | Text Only | Print | Product List | Glossary On
Versions: 1 2 3 4 5 6 7 8 9 10 11 12 13 14 15 16 17 18 19 20 21 22 23 24 25 26 27 28 29
151
FTUS44 KTSA 270123 AAA
TAFFSM
TAF AMD
KFSM 270123Z 2701/2724 08011KT P6SM BKN250
     FM270400 13011KT P6SM BKN025
     FM271000 09008KT P6SM OVC015 PROB30 2712/2718 4SM -TSRA
      BKN007CB
     FM271800 15012G20KT P6SM VCTS BKN025CB
      TEMPO 2722/2724 2SM +TSRA OVC015CB=

USA.gov is the U.S. government's official web portal to all federal, state and local government web resources and services.